Terminal Aerodrome Forecast
Issued by NWS Bismarck, ND

Home | Current Version | Previous Version | Graphics & Text | Print | Product List | Glossary On
Versions: 1 2 3 4 5 6 7 8 9 10 11 12 13 14 15 16 17 18
000
FTUS43 KBIS 232000 AAA
TAFBIS
TAF AMD
KBIS 232039Z 2321/2418 32023G30KT P6SM VCSH OVC022
     FM240200 33017KT P6SM OVC025
     FM241200 33013KT P6SM SCT025=

USA.gov is the U.S. government's official web portal to all federal, state and local government web resources and services.